createdAt,value
2016-08-29T00:00:48.452Z,83.78
2016-08-29T00:01:48.038Z,83.78
2016-08-29T00:02:48.037Z,83.4
2016-08-29T00:03:48.023Z,83.4
2016-08-29T00:04:48.019Z,83.59
2016-08-29T00:05:48.006Z,83.11
2016-08-29T00:06:48.000Z,83.11
2016-08-29T00:07:48.040Z,83.3
2016-08-29T00:08:47.984Z,83.3
2016-08-29T00:09:47.974Z,82.92
2016-08-29T00:10:48.670Z,83.11
2016-08-29T00:11:47.961Z,82.92
2016-08-29T00:12:47.965Z,83.2
2016-08-29T00:13:47.941Z,83.3
2016-08-29T00:14:47.930Z,82.92
2016-08-29T00:15:48.634Z,83.11
2016-08-29T00:16:47.914Z,83.11
2016-08-29T00:17:48.665Z,83.49
2016-08-29T00:18:47.899Z,82.92
2016-08-29T00:19:47.890Z,83.49
2016-08-29T00:20:48.590Z,83.01
2016-08-29T00:21:48.587Z,83.78
2016-08-29T00:22:47.865Z,83.59
2016-08-29T00:23:47.856Z,83.3
2016-08-29T00:24:47.852Z,83.78
2016-08-29T00:25:47.837Z,83.97
2016-08-29T00:26:48.537Z,84.17
2016-08-29T00:27:47.825Z,84.07
2016-08-29T00:28:48.530Z,84.07
2016-08-29T00:29:48.511Z,83.84
2016-08-29T00:30:47.801Z,84.64
2016-08-29T00:31:47.791Z,84.17
2016-08-29T00:32:47.778Z,84.17
2016-08-29T00:33:47.772Z,84.74
2016-08-29T00:34:47.765Z,83.87
2016-08-29T00:35:47.755Z,83.93
2016-08-29T00:36:47.749Z,84.51
2016-08-29T00:37:47.743Z,84.03
2016-08-29T00:38:47.731Z,84.41
2016-08-29T00:39:48.431Z,84.7
2016-08-29T00:40:47.717Z,84.8
2016-08-29T00:41:47.707Z,84.51
2016-08-29T00:42:47.695Z,84.6
2016-08-29T00:43:47.690Z,85.08
2016-08-29T00:44:47.682Z,85.18
2016-08-29T00:45:47.672Z,84.7
2016-08-29T00:46:47.673Z,84.89
2016-08-29T00:47:48.361Z,85.75
2016-08-29T00:48:47.645Z,85.28
2016-08-29T00:49:47.640Z,85.18
2016-08-29T00:50:47.628Z,85.66
2016-08-29T00:51:47.624Z,85.95
2016-08-29T00:52:47.615Z,86.24
2016-08-29T00:53:47.604Z,86.14
2016-08-29T00:54:47.595Z,85.95
2016-08-29T00:55:47.590Z,86.52
2016-08-29T00:56:48.285Z,86.05
2016-08-29T00:57:47.569Z,86.52
2016-08-29T00:58:47.566Z,86.33
2016-08-29T00:59:47.604Z,86.14
2016-08-29T01:00:47.545Z,86.24
2016-08-29T01:01:47.538Z,86.72
2016-08-29T01:02:47.527Z,86.52
2016-08-29T01:03:47.523Z,86.72
2016-08-29T01:04:47.515Z,86.81
2016-08-29T01:05:47.502Z,86.62
2016-08-29T01:06:47.493Z,86.72
2016-08-29T01:07:47.488Z,86.96
2016-08-29T01:08:47.478Z,86.87
2016-08-29T01:09:47.470Z,86.96
2016-08-29T01:10:47.466Z,87.92
2016-08-29T01:11:47.455Z,87.54
2016-08-29T01:12:47.445Z,87.92
2016-08-29T01:13:47.438Z,88.02
2016-08-29T01:14:47.427Z,88.02
2016-08-29T01:15:48.133Z,88.31
2016-08-29T01:16:47.419Z,88.31
2016-08-29T01:17:47.401Z,88.11
2016-08-29T01:18:47.393Z,88.49
2016-08-29T01:19:47.384Z,88.02
2016-08-29T01:20:47.384Z,88.59
2016-08-29T01:21:47.367Z,88.49
2016-08-29T01:22:47.357Z,88.59
2016-08-29T01:23:47.349Z,88.59
2016-08-29T01:24:47.340Z,88.98
2016-08-29T01:25:47.330Z,89.17
2016-08-29T01:26:47.326Z,88.88
2016-08-29T01:27:47.323Z,88.59
2016-08-29T01:28:47.305Z,88.88
2016-08-29T01:29:47.310Z,89.07
2016-08-29T01:30:47.289Z,88.79
2016-08-29T01:31:47.279Z,88.79
2016-08-29T01:32:47.272Z,88.98
2016-08-29T01:33:47.265Z,88.98
2016-08-29T01:34:47.255Z,88.98
2016-08-29T01:35:47.248Z,89.36
2016-08-29T01:36:47.239Z,89.36
2016-08-29T01:37:47.279Z,89.55
2016-08-29T01:38:47.227Z,89.55
2016-08-29T01:39:47.214Z,89.46
2016-08-29T01:40:47.205Z,89.26
2016-08-29T01:41:47.195Z,89.17
2016-08-29T01:42:47.186Z,89.22
2016-08-29T01:43:47.179Z,89.51
2016-08-29T01:44:47.168Z,89.41
2016-08-29T01:45:47.162Z,89.22
2016-08-29T01:46:47.158Z,89.32
2016-08-29T01:47:47.143Z,89.51
2016-08-29T01:48:47.843Z,89.41
2016-08-29T01:49:47.130Z,89.32
2016-08-29T01:50:47.113Z,89.7
2016-08-29T01:51:47.115Z,89.51
2016-08-29T01:52:47.097Z,89.32
2016-08-29T01:53:47.093Z,89.32
2016-08-29T01:54:47.083Z,89.7
2016-08-29T01:55:47.071Z,89.41
2016-08-29T01:56:47.768Z,89.7
2016-08-29T01:57:47.054Z,89.7
2016-08-29T01:58:47.046Z,89.99
2016-08-29T01:59:47.085Z,89.61
2016-08-29T02:00:47.041Z,89.7
2016-08-29T02:01:47.019Z,89.51
2016-08-29T02:02:47.011Z,90.08
2016-08-29T02:03:46.999Z,89.89
2016-08-29T02:04:46.991Z,89.51
2016-08-29T02:05:47.702Z,90.18
2016-08-29T02:06:46.976Z,90.18
2016-08-29T02:07:46.966Z,90.08
2016-08-29T02:08:46.964Z,89.79
2016-08-29T02:09:46.952Z,90.18
2016-08-29T02:10:47.646Z,90.08
2016-08-29T02:11:46.936Z,90.28
2016-08-29T02:12:46.922Z,89.99
2016-08-29T02:13:46.930Z,90.37
2016-08-29T02:14:46.903Z,90.66
2016-08-29T02:15:46.913Z,90.66
2016-08-29T02:16:46.886Z,90.28
2016-08-29T02:17:47.596Z,90.56
2016-08-29T02:18:46.868Z,91.05
2016-08-29T02:19:46.869Z,90.75
2016-08-29T02:20:46.853Z,91.33
2016-08-29T02:21:46.862Z,90.66
2016-08-29T02:22:46.842Z,90.75
2016-08-29T02:23:47.573Z,90.95
2016-08-29T02:24:46.823Z,91.14
2016-08-29T02:25:46.807Z,90.66
2016-08-29T02:26:46.848Z,90.85
2016-08-29T02:27:46.791Z,91.14
2016-08-29T02:28:46.779Z,91.91
2016-08-29T02:29:46.792Z,90.95
2016-08-29T02:30:46.762Z,91.62
2016-08-29T02:31:46.760Z,91.33
2016-08-29T02:32:47.452Z,91.14
2016-08-29T02:33:47.460Z,91.24
2016-08-29T02:34:47.437Z,91.14
2016-08-29T02:35:46.723Z,91.24
2016-08-29T02:36:46.709Z,91.14
2016-08-29T02:37:46.720Z,91.05
2016-08-29T02:38:46.689Z,91.81
2016-08-29T02:39:46.681Z,91.62
2016-08-29T02:40:46.683Z,90.85
2016-08-29T02:41:46.662Z,90.47
2016-08-29T02:42:46.656Z,90.37
2016-08-29T02:43:47.357Z,91.09
2016-08-29T02:44:46.636Z,90.9
2016-08-29T02:45:46.628Z,90.61
2016-08-29T02:46:47.328Z,90.61
2016-08-29T02:47:46.609Z,90.32
2016-08-29T02:48:46.603Z,90.61
2016-08-29T02:49:46.603Z,90.61
2016-08-29T02:50:46.583Z,90.8
2016-08-29T02:51:47.281Z,90.7
2016-08-29T02:52:46.570Z,90.7
2016-08-29T02:53:46.559Z,90.32
2016-08-29T02:54:46.548Z,91.09
2016-08-29T02:55:46.545Z,90.7
2016-08-29T02:56:46.540Z,90.22
2016-08-29T02:57:46.522Z,90.7
2016-08-29T02:58:47.293Z,90.22
2016-08-29T02:59:46.518Z,90.52
2016-08-29T03:00:46.497Z,90.03
2016-08-29T03:01:47.202Z,90.9
2016-08-29T03:02:46.481Z,89.84
2016-08-29T03:03:46.468Z,90.22
2016-08-29T03:04:46.462Z,90.13
2016-08-29T03:05:46.452Z,90.42
2016-08-29T03:06:46.444Z,89.94
2016-08-29T03:07:46.454Z,90.22
2016-08-29T03:08:46.428Z,90.52
2016-08-29T03:09:46.468Z,90.22
2016-08-29T03:10:46.409Z,90.7
2016-08-29T03:11:46.401Z,89.94
2016-08-29T03:12:46.395Z,90.13
2016-08-29T03:13:46.384Z,90.42
2016-08-29T03:14:46.380Z,90.37
2016-08-29T03:15:46.367Z,90.56
2016-08-29T03:16:47.066Z,90.37
2016-08-29T03:17:46.348Z,90.17
2016-08-29T03:18:46.342Z,90.46
2016-08-29T03:19:46.381Z,89.89
2016-08-29T03:20:46.324Z,89.89
2016-08-29T03:21:46.316Z,90.27
2016-08-29T03:22:46.305Z,89.79
2016-08-29T03:23:46.297Z,89.98
2016-08-29T03:24:46.291Z,90.17
2016-08-29T03:25:46.280Z,90.17
2016-08-29T03:26:46.271Z,90.17
2016-08-29T03:27:46.984Z,90.37
2016-08-29T03:28:46.962Z,90.17
2016-08-29T03:29:46.248Z,90.27
2016-08-29T03:30:46.256Z,90.27
2016-08-29T03:31:46.231Z,90.37
2016-08-29T03:32:46.234Z,90.08
2016-08-29T03:33:46.920Z,90.17
2016-08-29T03:34:46.909Z,90.17
2016-08-29T03:35:46.195Z,90.17
2016-08-29T03:36:46.186Z,89.98
2016-08-29T03:37:46.179Z,90.46
2016-08-29T03:38:46.167Z,90.37
2016-08-29T03:39:46.163Z,90.46
2016-08-29T03:40:46.151Z,90.17
2016-08-29T03:41:46.143Z,90.17
2016-08-29T03:42:46.132Z,90.37
2016-08-29T03:43:46.839Z,90.27
2016-08-29T03:44:46.118Z,90.75
2016-08-29T03:45:46.114Z,90.66
2016-08-29T03:46:46.098Z,90.94
2016-08-29T03:47:46.804Z,90.94
2016-08-29T03:48:46.788Z,90.75
2016-08-29T03:49:46.075Z,90.75
2016-08-29T03:50:46.065Z,90.75
2016-08-29T03:51:46.061Z,90.84
2016-08-29T03:52:46.759Z,90.66
2016-08-29T03:53:46.041Z,91.04
2016-08-29T03:54:46.031Z,90.94
2016-08-29T03:55:46.027Z,90.27
2016-08-29T03:56:46.011Z,90.46
2016-08-29T03:57:46.734Z,90.84
2016-08-29T03:58:46.703Z,90.75
2016-08-29T03:59:45.988Z,91.04
2016-08-29T04:00:45.978Z,91.04
2016-08-29T04:01:46.172Z,91.04
2016-08-29T04:02:45.964Z,90.66
2016-08-29T04:03:45.950Z,90.66
2016-08-29T04:04:45.946Z,91.04
2016-08-29T04:05:46.649Z,90.66
2016-08-29T04:06:46.635Z,91.42
2016-08-29T04:07:45.932Z,91.23
2016-08-29T04:08:45.914Z,91.13
2016-08-29T04:09:45.905Z,90.84
2016-08-29T04:10:45.900Z,90.66
2016-08-29T04:11:45.932Z,91.42
2016-08-29T04:12:46.583Z,90.94
2016-08-29T04:13:46.574Z,90.66
2016-08-29T04:14:45.857Z,91.04
2016-08-29T04:15:45.848Z,90.66
2016-08-29T04:16:45.842Z,91.13
2016-08-29T04:17:45.838Z,91.42
2016-08-29T04:18:45.841Z,91.23
2016-08-29T04:19:45.813Z,91.13
2016-08-29T04:20:45.805Z,91.42
2016-08-29T04:21:45.796Z,91.33
2016-08-29T04:22:45.793Z,91.42
2016-08-29T04:23:46.488Z,90.94
2016-08-29T04:24:45.804Z,91.13
2016-08-29T04:25:45.773Z,91.04
2016-08-29T04:26:45.759Z,91.23
2016-08-29T04:27:46.454Z,91.13
2016-08-29T04:28:45.737Z,91.04
2016-08-29T04:29:45.728Z,90.84
2016-08-29T04:30:45.717Z,90.84
2016-08-29T04:31:45.710Z,91.13
2016-08-29T04:32:45.706Z,90.66
2016-08-29T04:33:46.402Z,91.23
2016-08-29T04:34:45.690Z,90.84
2016-08-29T04:35:46.397Z,91.33
2016-08-29T04:36:45.669Z,90.94
2016-08-29T04:37:45.712Z,91.23
2016-08-29T04:38:46.385Z,91.23
2016-08-29T04:39:45.643Z,91.04
2016-08-29T04:40:45.632Z,91.04
2016-08-29T04:41:45.626Z,91.04
2016-08-29T04:42:45.615Z,91.13
2016-08-29T04:43:45.607Z,91.52
2016-08-29T04:44:45.601Z,91.42
2016-08-29T04:45:45.592Z,91.13
2016-08-29T04:46:45.581Z,91.33
2016-08-29T04:47:45.596Z,91.33
2016-08-29T04:48:45.579Z,91.71
2016-08-29T04:49:45.561Z,91.23
2016-08-29T04:50:45.553Z,91.42
2016-08-29T04:51:45.547Z,91.61
2016-08-29T04:52:45.534Z,91.23
2016-08-29T04:53:45.521Z,91.42
2016-08-29T04:54:45.511Z,91.33
2016-08-29T04:55:46.214Z,91.52
2016-08-29T04:56:46.205Z,91.33
2016-08-29T04:57:46.198Z,91.61
2016-08-29T04:58:45.484Z,92
2016-08-29T04:59:45.475Z,91.61
2016-08-29T05:00:46.542Z,91.61
2016-08-29T05:01:45.459Z,91.33
2016-08-29T05:02:45.444Z,91.81
2016-08-29T05:03:45.434Z,91.52
2016-08-29T05:04:45.428Z,92
2016-08-29T05:05:45.416Z,91.81
2016-08-29T05:06:45.415Z,92
2016-08-29T05:07:45.397Z,91.42
2016-08-29T05:08:45.388Z,91.52
2016-08-29T05:09:46.102Z,91.61
2016-08-29T05:10:45.376Z,91.52
2016-08-29T05:11:46.081Z,92
2016-08-29T05:12:45.362Z,91.9
2016-08-29T05:13:45.349Z,91.81
2016-08-29T05:14:46.060Z,92.19
2016-08-29T05:15:45.328Z,92.1
2016-08-29T05:16:45.321Z,92.48
2016-08-29T05:17:45.313Z,92.19
2016-08-29T05:18:45.306Z,92.29
2016-08-29T05:19:45.298Z,92.29
2016-08-29T05:20:45.288Z,92.67
2016-08-29T05:21:45.280Z,92.48
2016-08-29T05:22:45.271Z,92.19
2016-08-29T05:23:45.980Z,92.57
2016-08-29T05:24:45.253Z,92.29
2016-08-29T05:25:45.249Z,91.71
2016-08-29T05:26:45.944Z,92.43
2016-08-29T05:27:45.285Z,92.43
2016-08-29T05:28:45.217Z,92.72
2016-08-29T05:29:45.209Z,91.56
2016-08-29T05:30:45.202Z,92.1
2016-08-29T05:31:45.200Z,92
2016-08-29T05:32:45.183Z,91.9
2016-08-29T05:33:45.182Z,92.1
2016-08-29T05:34:45.874Z,91.81
2016-08-29T05:35:45.164Z,91.71
2016-08-29T05:36:45.149Z,92.05
2016-08-29T05:37:45.849Z,92.24
2016-08-29T05:38:45.836Z,91.85
2016-08-29T05:39:45.829Z,92.24
2016-08-29T05:40:45.115Z,92.33
2016-08-29T05:41:45.108Z,92.62
2016-08-29T05:42:45.855Z,93.77
2016-08-29T05:43:45.095Z,94.06
2016-08-29T05:44:45.079Z,95.03
2016-08-29T05:45:45.780Z,95.79
2016-08-29T05:46:45.064Z,96.94
2016-08-29T05:47:45.092Z,97.28
2016-08-29T05:48:45.058Z,97.19
2016-08-29T05:49:45.061Z,97.66
2016-08-29T05:50:45.751Z,98.24
2016-08-29T05:51:45.022Z,98.72
2016-08-29T05:52:45.722Z,99.1
2016-08-29T05:53:45.708Z,99.78
2016-08-29T05:54:44.998Z,99.97
2016-08-29T05:55:44.986Z,99.99
2016-08-29T05:56:44.978Z,99.99
2016-08-29T05:57:44.972Z,99.99
2016-08-29T05:58:44.960Z,99.99
2016-08-29T05:59:44.956Z,99.99
2016-08-29T06:00:44.961Z,99.99
2016-08-29T06:01:45.164Z,99.99
2016-08-29T06:02:44.927Z,99.99
2016-08-29T06:03:45.622Z,99.99
2016-08-29T06:04:44.912Z,99.99
2016-08-29T06:05:45.609Z,99.99
2016-08-29T06:06:44.889Z,99.99
2016-08-29T06:07:45.599Z,99.99
2016-08-29T06:08:44.874Z,99.99
2016-08-29T06:09:45.576Z,99.99
2016-08-29T06:10:44.855Z,99.99
2016-08-29T06:11:45.557Z,99.99
2016-08-29T06:12:45.545Z,99.99
2016-08-29T06:13:44.829Z,99.99
2016-08-29T06:14:44.824Z,99.99
2016-08-29T06:15:44.822Z,99.99
2016-08-29T06:16:44.804Z,99.99
2016-08-29T06:17:44.803Z,99.99
2016-08-29T06:18:44.807Z,99.99
2016-08-29T06:19:44.815Z,99.99
2016-08-29T06:20:44.773Z,99.99
2016-08-29T06:21:45.477Z,99.99
2016-08-29T06:22:44.755Z,99.99
2016-08-29T06:23:44.745Z,99.99
2016-08-29T06:24:44.738Z,99.99
2016-08-29T06:25:44.734Z,99.99
2016-08-29T06:26:45.426Z,99.99
2016-08-29T06:27:44.712Z,99.99
2016-08-29T06:28:44.706Z,99.99
2016-08-29T06:29:44.696Z,99.99
2016-08-29T06:30:44.690Z,99.99
2016-08-29T06:31:44.679Z,99.99
2016-08-29T06:32:45.388Z,99.99
2016-08-29T06:33:44.660Z,99.99
2016-08-29T06:34:44.651Z,99.99
2016-08-29T06:35:45.354Z,99.99
2016-08-29T06:36:44.638Z,99.99
2016-08-29T06:37:44.629Z,99.99
2016-08-29T06:38:44.622Z,99.99
2016-08-29T06:39:44.611Z,99.99
2016-08-29T06:40:44.614Z,99.99
2016-08-29T06:41:45.302Z,99.99
2016-08-29T06:42:44.589Z,99.99
2016-08-29T06:43:44.592Z,99.99
2016-08-29T06:44:44.569Z,99.99
2016-08-29T06:45:44.560Z,99.99
2016-08-29T06:46:44.565Z,99.99
2016-08-29T06:47:44.598Z,99.99
2016-08-29T06:48:45.253Z,99.99
2016-08-29T06:49:44.529Z,99.99
2016-08-29T06:50:44.518Z,99.99
2016-08-29T06:51:44.508Z,99.99
2016-08-29T06:52:44.505Z,99.99
2016-08-29T06:53:44.494Z,99.99
2016-08-29T06:54:44.501Z,99.87
2016-08-29T06:55:44.481Z,99.99
2016-08-29T06:56:45.174Z,99.99
2016-08-29T06:57:45.177Z,99.99
2016-08-29T06:58:45.162Z,99.99
2016-08-29T06:59:44.451Z,99.99
2016-08-29T07:00:45.158Z,99.99
2016-08-29T07:01:44.426Z,99.99
2016-08-29T07:02:44.415Z,99.99
2016-08-29T07:03:44.407Z,99.99
2016-08-29T07:04:44.401Z,99.99
2016-08-29T07:05:44.394Z,99.99
2016-08-29T07:06:44.381Z,99.99
2016-08-29T07:07:44.373Z,99.99
2016-08-29T07:08:45.070Z,99.99
2016-08-29T07:09:45.085Z,99.99
2016-08-29T07:10:44.345Z,99.99
2016-08-29T07:11:44.336Z,99.99
2016-08-29T07:12:45.040Z,99.99
2016-08-29T07:13:44.321Z,99.99
2016-08-29T07:14:45.024Z,99.99
2016-08-29T07:15:44.310Z,99.99
2016-08-29T07:16:44.296Z,99.99
2016-08-29T07:17:44.295Z,99.99
2016-08-29T07:18:44.278Z,99.99
2016-08-29T07:19:44.275Z,99.99
2016-08-29T07:20:44.264Z,99.99
2016-08-29T07:21:44.258Z,99.99
2016-08-29T07:22:44.957Z,99.99
2016-08-29T07:23:44.254Z,99.99
2016-08-29T07:24:44.229Z,99.99
2016-08-29T07:25:44.938Z,99.99
2016-08-29T07:26:44.218Z,99.99
2016-08-29T07:27:44.203Z,99.99
2016-08-29T07:28:44.195Z,99.99
2016-08-29T07:29:44.187Z,99.99
2016-08-29T07:30:44.176Z,99.99
2016-08-29T07:31:44.168Z,99.99
2016-08-29T07:32:44.164Z,99.99
2016-08-29T07:33:44.872Z,99.99
2016-08-29T07:34:44.142Z,99.99
2016-08-29T07:35:44.134Z,99.99
2016-08-29T07:36:44.123Z,99.99
2016-08-29T07:37:44.143Z,99.99
2016-08-29T07:38:44.107Z,99.99
2016-08-29T07:39:44.098Z,99.99
2016-08-29T07:40:44.162Z,99.99
2016-08-29T07:41:44.970Z,99.99
2016-08-29T07:42:44.092Z,99.99
2016-08-29T07:43:44.889Z,99.99
2016-08-29T07:44:44.054Z,99.99
2016-08-29T07:45:44.052Z,99.99
2016-08-29T07:46:44.053Z,99.99
2016-08-29T07:47:44.244Z,99.99
2016-08-29T07:48:44.729Z,99.99
2016-08-29T07:49:44.014Z,99.99
2016-08-29T07:50:44.025Z,99.99
2016-08-29T07:51:44.001Z,99.99
2016-08-29T07:52:43.993Z,99.99
2016-08-29T07:53:43.984Z,99.99
2016-08-29T07:54:43.982Z,99.99
2016-08-29T07:55:43.974Z,99.99
2016-08-29T07:56:43.957Z,99.99
2016-08-29T07:57:43.974Z,99.99
2016-08-29T07:58:44.157Z,99.99
2016-08-29T07:59:43.931Z,99.99
2016-08-29T08:00:43.930Z,99.99
2016-08-29T08:01:44.823Z,99.99
2016-08-29T08:02:43.905Z,99.99
2016-08-29T08:03:43.898Z,99.99
2016-08-29T08:04:43.891Z,99.99
2016-08-29T08:05:44.599Z,99.99
2016-08-29T08:06:44.587Z,99.99
2016-08-29T08:07:43.864Z,99.99
2016-08-29T08:08:43.854Z,99.99
2016-08-29T08:09:43.848Z,99.99
2016-08-29T08:10:44.554Z,99.99
2016-08-29T08:11:43.834Z,99.99
2016-08-29T08:12:43.831Z,99.99
2016-08-29T08:13:43.820Z,99.99
2016-08-29T08:14:43.808Z,99.99
2016-08-29T08:15:43.811Z,99.99
2016-08-29T08:16:43.798Z,99.99
2016-08-29T08:17:44.522Z,99.99
2016-08-29T08:18:44.498Z,99.99
2016-08-29T08:19:44.478Z,99.99
2016-08-29T08:20:43.760Z,99.99
2016-08-29T08:21:43.763Z,99.99
2016-08-29T08:22:44.464Z,99.99
2016-08-29T08:23:43.751Z,99.99
2016-08-29T08:24:43.733Z,99.99
2016-08-29T08:25:44.463Z,99.99
2016-08-29T08:26:43.730Z,99.99
2016-08-29T08:27:43.711Z,99.99
2016-08-29T08:28:44.426Z,99.99
2016-08-29T08:29:44.403Z,99.99
2016-08-29T08:30:43.686Z,99.99
2016-08-29T08:31:44.387Z,99.99
2016-08-29T08:32:43.683Z,99.99
2016-08-29T08:33:43.671Z,99.99
2016-08-29T08:34:43.655Z,99.99
2016-08-29T08:35:43.665Z,99.78
2016-08-29T08:36:43.645Z,99.99
2016-08-29T08:37:43.630Z,99.99
2016-08-29T08:38:43.625Z,99.88
2016-08-29T08:39:43.668Z,99.99
2016-08-29T08:40:43.614Z,99.88
2016-08-29T08:41:43.618Z,99.99
2016-08-29T08:42:43.595Z,99.88
2016-08-29T08:43:43.587Z,99.59
2016-08-29T08:44:43.584Z,99.26
2016-08-29T08:45:43.588Z,98
2016-08-29T08:46:43.569Z,97.81
2016-08-29T08:47:43.562Z,98.1
2016-08-29T08:48:43.561Z,97.04
2016-08-29T08:49:43.564Z,96.17
2016-08-29T08:50:43.542Z,96.27
2016-08-29T08:51:43.532Z,95.79
2016-08-29T08:52:43.526Z,95.94
2016-08-29T08:53:43.523Z,96.08
2016-08-29T08:54:43.511Z,96.08
2016-08-29T08:55:43.508Z,95.6
2016-08-29T08:56:43.497Z,95.89
2016-08-29T08:57:44.203Z,95.12
2016-08-29T08:58:44.191Z,96.47
2016-08-29T08:59:43.478Z,97.04
2016-08-29T09:00:43.489Z,94.92
2016-08-29T09:01:43.463Z,96.37
2016-08-29T09:02:44.170Z,96.66
2016-08-29T09:03:43.448Z,95.45
2016-08-29T09:04:43.450Z,94.54
2016-08-29T09:05:43.442Z,95.5
2016-08-29T09:06:43.427Z,94.78
2016-08-29T09:07:43.419Z,94.97
2016-08-29T09:08:44.120Z,94.4
2016-08-29T09:09:44.116Z,94.68
2016-08-29T09:10:43.403Z,93.91
2016-08-29T09:11:44.099Z,94.78
2016-08-29T09:12:43.386Z,95.45
2016-08-29T09:13:43.381Z,95.17
2016-08-29T09:14:43.374Z,95.84
2016-08-29T09:15:43.368Z,95.45
2016-08-29T09:16:43.372Z,94.87
2016-08-29T09:17:43.354Z,92.66
2016-08-29T09:18:43.346Z,94.1
2016-08-29T09:19:43.338Z,92.8
2016-08-29T09:20:43.350Z,93
2016-08-29T09:21:43.329Z,92.32
2016-08-29T09:22:43.326Z,91.75
2016-08-29T09:23:43.314Z,91.7
2016-08-29T09:24:43.306Z,93.15
2016-08-29T09:25:44.021Z,93.43
2016-08-29T09:26:43.296Z,92.47
2016-08-29T09:27:44.001Z,92.66
2016-08-29T09:28:43.280Z,92.66
2016-08-29T09:29:43.275Z,93.53
2016-08-29T09:30:43.277Z,92.47
2016-08-29T09:31:43.262Z,93.53
2016-08-29T09:32:43.260Z,92.08
2016-08-29T09:33:43.254Z,92.28
2016-08-29T09:34:43.250Z,92.85
2016-08-29T09:35:43.234Z,93.43
2016-08-29T09:36:43.228Z,91.99
2016-08-29T09:37:43.229Z,92.38
2016-08-29T09:38:43.219Z,92.18
2016-08-29T09:39:43.204Z,92.57
2016-08-29T09:40:43.199Z,92.95
2016-08-29T09:41:43.902Z,91.94
2016-08-29T09:42:43.185Z,90.11
2016-08-29T09:43:43.182Z,90.69
2016-08-29T09:44:43.175Z,90.88
2016-08-29T09:45:43.877Z,88.76
2016-08-29T09:46:43.167Z,89.82
2016-08-29T09:47:43.154Z,89.92
2016-08-29T09:48:43.147Z,90.06
2016-08-29T09:49:43.146Z,90.64
2016-08-29T09:50:43.140Z,88.81
2016-08-29T09:51:43.127Z,88.42
2016-08-29T09:52:43.122Z,88.9
2016-08-29T09:53:43.117Z,89.19
2016-08-29T09:54:43.111Z,89.09
2016-08-29T09:55:43.103Z,89.29
2016-08-29T09:56:43.103Z,88.71
2016-08-29T09:57:43.100Z,89
2016-08-29T09:58:43.099Z,90.69
2016-08-29T09:59:43.079Z,89.96
2016-08-29T10:00:43.782Z,89.09
2016-08-29T10:01:43.281Z,89.19
2016-08-29T10:02:43.060Z,89.29
2016-08-29T10:03:43.064Z,88.76
2016-08-29T10:04:43.755Z,89.86
2016-08-29T10:05:43.042Z,91.12
2016-08-29T10:06:43.036Z,89.19
2016-08-29T10:07:43.027Z,88.65
2016-08-29T10:08:43.026Z,89.33
2016-08-29T10:09:43.732Z,88.37
2016-08-29T10:10:43.014Z,87.4
2016-08-29T10:11:43.714Z,88.08
2016-08-29T10:12:42.999Z,86.92
2016-08-29T10:13:42.996Z,86.82
2016-08-29T10:14:43.001Z,87.02
2016-08-29T10:15:42.986Z,87.12
2016-08-29T10:16:42.974Z,86.82
2016-08-29T10:17:42.970Z,86.15
2016-08-29T10:18:42.965Z,86.25
2016-08-29T10:19:42.965Z,85.77
2016-08-29T10:20:42.953Z,85.86
2016-08-29T10:21:42.950Z,87.12
2016-08-29T10:22:42.945Z,86.54
2016-08-29T10:23:42.936Z,87.12
2016-08-29T10:24:42.930Z,85.09
2016-08-29T10:25:42.922Z,85.19
2016-08-29T10:26:42.919Z,85.28
2016-08-29T10:27:42.913Z,84.61
2016-08-29T10:28:42.907Z,85.03
2016-08-29T10:29:42.903Z,84.36
2016-08-29T10:30:42.896Z,85.33
2016-08-29T10:31:42.889Z,82.62
2016-08-29T10:32:42.885Z,83.3
2016-08-29T10:33:42.926Z,82.82
2016-08-29T10:34:42.876Z,83.98
2016-08-29T10:35:43.576Z,84.07
2016-08-29T10:36:42.859Z,84.27
2016-08-29T10:37:42.855Z,82.53
2016-08-29T10:38:42.861Z,83.78
2016-08-29T10:39:42.845Z,82.43
2016-08-29T10:40:42.848Z,82.62
2016-08-29T10:41:42.831Z,81.57
2016-08-29T10:42:42.836Z,80.99
2016-08-29T10:43:42.822Z,82.43
2016-08-29T10:44:43.523Z,82.62
2016-08-29T10:45:42.809Z,81.99
2016-08-29T10:46:42.803Z,82.18
2016-08-29T10:47:42.798Z,82.67
2016-08-29T10:48:42.797Z,81.41
2016-08-29T10:49:42.786Z,80.06
2016-08-29T10:50:42.781Z,81.02
2016-08-29T10:51:42.778Z,80.35
2016-08-29T10:52:42.784Z,79.72
2016-08-29T10:53:42.762Z,79.62
2016-08-29T10:54:42.762Z,80.39
2016-08-29T10:55:43.467Z,80.1
2016-08-29T10:56:42.749Z,80.68
2016-08-29T10:57:42.759Z,80
2016-08-29T10:58:42.749Z,81.16
2016-08-29T10:59:42.740Z,80.58
2016-08-29T11:00:43.143Z,80
2016-08-29T11:01:42.726Z,79.62
2016-08-29T11:02:43.450Z,77.83
2016-08-29T11:03:42.716Z,79.72
2016-08-29T11:04:42.723Z,80
2016-08-29T11:05:42.716Z,79.17
2016-08-29T11:06:42.728Z,78.5
2016-08-29T11:07:42.702Z,77.73
2016-08-29T11:08:42.686Z,76.86
2016-08-29T11:09:42.682Z,75.02
2016-08-29T11:10:42.675Z,74.44
2016-08-29T11:11:43.398Z,74.83
2016-08-29T11:12:42.669Z,72.52
2016-08-29T11:13:42.666Z,74.83
2016-08-29T11:14:42.668Z,72.52
2016-08-29T11:15:43.364Z,73.67
2016-08-29T11:16:42.650Z,73.86
2016-08-29T11:17:43.359Z,72.71
2016-08-29T11:18:42.650Z,75.12
2016-08-29T11:19:42.633Z,74.51
2016-08-29T11:20:42.640Z,73.54
2016-08-29T11:21:43.333Z,75.09
2016-08-29T11:22:42.622Z,75.09
2016-08-29T11:23:42.615Z,75.76
2016-08-29T11:24:42.615Z,75.76
2016-08-29T11:25:43.313Z,75.72
2016-08-29T11:26:42.602Z,76.88
2016-08-29T11:27:42.595Z,76.68
2016-08-29T11:28:42.595Z,75.92
2016-08-29T11:29:42.590Z,77.07
2016-08-29T11:30:42.577Z,77.36
2016-08-29T11:31:42.577Z,77.65
2016-08-29T11:32:42.567Z,77.9
2016-08-29T11:33:42.561Z,79.35
2016-08-29T11:34:42.556Z,78.96
2016-08-29T11:35:42.549Z,79.64
2016-08-29T11:36:42.544Z,78.03
2016-08-29T11:37:42.536Z,78.61
2016-08-29T11:38:42.532Z,78.03
2016-08-29T11:39:42.530Z,77.84
2016-08-29T11:40:42.522Z,78.23
2016-08-29T11:41:42.513Z,77.65
2016-08-29T11:42:42.509Z,77.21
2016-08-29T11:43:42.520Z,78.56
2016-08-29T11:44:42.497Z,76.82
2016-08-29T11:45:42.498Z,77.01
2016-08-29T11:46:42.499Z,75.37
2016-08-29T11:47:43.188Z,76.05
2016-08-29T11:48:42.477Z,75.72
2016-08-29T11:49:42.471Z,74.95
2016-08-29T11:50:42.468Z,75.14
2016-08-29T11:51:42.460Z,73.89
2016-08-29T11:52:42.456Z,74.47
2016-08-29T11:53:43.158Z,74.76
2016-08-29T11:54:42.443Z,74.76
2016-08-29T11:55:42.434Z,75.53
2016-08-29T11:56:42.431Z,75.92
2016-08-29T11:57:42.425Z,74.6
2016-08-29T11:58:42.426Z,73.83
2016-08-29T11:59:42.412Z,73.54
2016-08-29T12:00:42.410Z,73.25
2016-08-29T12:01:42.810Z,72.67
2016-08-29T12:02:42.405Z,73.03
2016-08-29T12:03:42.390Z,71.58
2016-08-29T12:04:42.387Z,71.88
2016-08-29T12:05:42.384Z,68.62
2016-08-29T12:06:42.378Z,69.98
2016-08-29T12:07:42.375Z,68.24
2016-08-29T12:08:43.075Z,68.72
2016-08-29T12:09:42.361Z,69.4
2016-08-29T12:10:42.358Z,69.98
2016-08-29T12:11:42.355Z,69.4
2016-08-29T12:12:42.356Z,69.94
2016-08-29T12:13:42.348Z,70.23
2016-08-29T12:14:42.342Z,70.23
2016-08-29T12:15:42.334Z,70.14
2016-08-29T12:16:42.333Z,70.23
2016-08-29T12:17:42.322Z,69.17
2016-08-29T12:18:42.318Z,70.48
2016-08-29T12:19:42.315Z,68.26
2016-08-29T12:20:42.311Z,68.55
2016-08-29T12:21:42.304Z,69.32
2016-08-29T12:22:43.013Z,68.65
2016-08-29T12:23:42.298Z,68.46
2016-08-29T12:24:42.295Z,69.26
2016-08-29T12:25:42.998Z,69.17
2016-08-29T12:26:42.280Z,67.43
2016-08-29T12:27:42.983Z,70.23
2016-08-29T12:28:42.269Z,70.42
2016-08-29T12:29:42.266Z,69.88
2016-08-29T12:30:42.260Z,68.72
2016-08-29T12:31:42.256Z,70.17
2016-08-29T12:32:42.253Z,67.79
2016-08-29T12:33:42.247Z,67.27
2016-08-29T12:34:42.951Z,65.72
2016-08-29T12:35:42.239Z,66.69
2016-08-29T12:36:42.234Z,67.75
2016-08-29T12:37:42.236Z,68.24
2016-08-29T12:38:42.259Z,68.24
2016-08-29T12:39:42.220Z,68.33
2016-08-29T12:40:42.213Z,67.66
2016-08-29T12:41:42.215Z,69.88
2016-08-29T12:42:42.209Z,70.56
2016-08-29T12:43:42.197Z,68.27
2016-08-29T12:44:42.201Z,65.95
2016-08-29T12:45:42.189Z,65.75
2016-08-29T12:46:42.890Z,66.63
2016-08-29T12:47:42.182Z,65.75
2016-08-29T12:48:42.226Z,65.47
2016-08-29T12:49:42.169Z,66.91
2016-08-29T12:50:42.177Z,66.63
2016-08-29T12:51:42.162Z,68.66
2016-08-29T12:52:42.156Z,68.95
2016-08-29T12:53:42.160Z,67.69
2016-08-29T12:54:42.148Z,68.08
2016-08-29T12:55:42.150Z,65.66